»·PEaware :: N64267 KVNY-KBFL

N64267 :: KVNY-KBFL

FLIGHT INFORMATION

Flight Status: Arrived
Operator: Privately registered:
United States
More flights under this callsign
Pilot: ActivePILOT (17633)
Aircraft: CESSNA 172 SKYHAWK
(C172)
More flights by this aircraft type
Origin: KVNY Van Nuys
United States
Destination: KBFL Meadows
United States
More flights between these airports :: More routes between these airports
Route: +
File this flight plan on PilotEdge
Remarks:
Altitude:
(Current/Filed)
0ft
Speed:
(Current/Filed)
0kts
Departed: 05-Mar-18 06:29 PM
Arrived: 05-Mar-18 07:21 PM
Distance/Time
Traveled:
79nm/0:52
Distance/Time
To Go:
Arrived

Flight Plot

Page will automatically refresh every two minutes.

Flight plan parsing failed; only flown route is shown


Map Options




Map Legend


Flown Route
Filed Route
Departure Airport
Arrival Airport
Navaid (VOR, NDB)
Fix

Horizontal Profiles

Position Reports

Time Latitude Longitude Heading Altitude Ground
Speed
05-Mar-18 18:24 34.217013 -118.495892 188 777ft 0kts
05-Mar-18 18:25 34.217012 -118.495892 188 777ft 0kts
05-Mar-18 18:26 34.216658 -118.495758 112 777ft 5kts
05-Mar-18 18:27 34.216415 -118.493711 97 777ft 6kts
05-Mar-18 18:28 34.216920 -118.492306 358 777ft 10kts
05-Mar-18 18:29 34.218897 -118.492075 73 777ft 0kts
05-Mar-18 18:30 34.214364 -118.492103 171 777ft 34kts
05-Mar-18 18:31 34.205261 -118.491186 174 777ft 19kts
05-Mar-18 18:32 34.202340 -118.490785 160 777ft 6kts
05-Mar-18 18:33 34.198283 -118.490172 172 777ft 18kts
05-Mar-18 18:34 34.197133 -118.489915 131 777ft 0kts
05-Mar-18 18:35 34.197131 -118.489913 131 777ft 0kts
05-Mar-18 18:36 34.201993 -118.489648 355 778ft 74kts
05-Mar-18 18:37 34.225724 -118.492081 355 1446ft 92kts
05-Mar-18 18:38 34.249479 -118.500097 353 2202ft 89kts
05-Mar-18 18:39 34.274814 -118.502030 0 2808ft 94kts
05-Mar-18 18:40 34.300948 -118.505084 350 3361ft 95kts
05-Mar-18 18:41 34.326244 -118.514595 346 3866ft 95kts
05-Mar-18 18:42 34.351330 -118.524923 324 4313ft 96kts
05-Mar-18 18:43 34.373804 -118.539122 344 4820ft 92kts
05-Mar-18 18:44 34.402840 -118.541470 4 4464ft 104kts
05-Mar-18 18:45 34.432187 -118.537029 3 4061ft 107kts
05-Mar-18 18:46 34.455935 -118.549775 329 4099ft 95kts
05-Mar-18 18:47 34.478193 -118.568567 327 4077ft 98kts
05-Mar-18 18:48 34.498742 -118.588911 301 4089ft 98kts
05-Mar-18 18:49 34.514237 -118.615381 304 4091ft 98kts
05-Mar-18 18:50 34.537023 -118.628884 348 4317ft 94kts
05-Mar-18 18:51 34.561911 -118.641234 329 4390ft 99kts
05-Mar-18 18:52 34.586040 -118.658431 325 4618ft 95kts
05-Mar-18 18:53 34.610630 -118.675577 332 4525ft 106kts
05-Mar-18 18:54 34.635635 -118.691483 331 4424ft 100kts
05-Mar-18 18:55 34.659690 -118.707843 331 4261ft 99kts
05-Mar-18 18:56 34.684368 -118.720740 338 4300ft 92kts
05-Mar-18 18:57 34.706601 -118.737269 326 4391ft 94kts
05-Mar-18 18:58 34.730185 -118.753655 335 4403ft 98kts
05-Mar-18 18:59 34.753155 -118.770740 1 4370ft 102kts
05-Mar-18 19:00 34.778553 -118.770670 345 4463ft 99kts
05-Mar-18 19:01 34.804084 -118.784216 301 4381ft 112kts
05-Mar-18 19:02 34.825901 -118.803445 341 4615ft 100kts
05-Mar-18 19:03 34.852294 -118.817308 333 4567ft 106kts
05-Mar-18 19:04 34.879981 -118.827848 349 4504ft 106kts
05-Mar-18 19:05 34.904740 -118.845964 317 4400ft 104kts
05-Mar-18 19:06 34.930260 -118.861932 327 4360ft 97kts
05-Mar-18 19:07 34.955931 -118.873135 4 4303ft 99kts
05-Mar-18 19:08 34.982677 -118.876450 335 4262ft 103kts
05-Mar-18 19:09 35.007234 -118.889097 326 4326ft 98kts
05-Mar-18 19:10 35.032250 -118.902203 333 4372ft 107kts
05-Mar-18 19:11 35.058048 -118.920400 323 4416ft 113kts
05-Mar-18 19:12 35.085073 -118.938875 329 4207ft 120kts
05-Mar-18 19:13 35.112666 -118.956452 323 4277ft 112kts
05-Mar-18 19:14 35.135588 -118.980371 335 4367ft 101kts
05-Mar-18 19:15 35.162464 -118.993907 347 4365ft 105kts
05-Mar-18 19:16 35.192245 -118.993324 12 4301ft 110kts
05-Mar-18 19:17 35.220605 -118.982951 28 4351ft 106kts
05-Mar-18 19:18 35.248881 -118.988352 344 4348ft 106kts
05-Mar-18 19:19 35.276724 -118.999305 333 4391ft 106kts
05-Mar-18 19:20 35.303749 -119.013442 341 4414ft 106kts
05-Mar-18 19:21 35.330965 -119.003106 44 3762ft 107kts
05-Mar-18 19:22 35.345697 -118.972013 74 2872ft 110kts
05-Mar-18 19:23 35.366855 -118.967254 315 1996ft 101kts
05-Mar-18 19:24 35.382547 -118.993350 306 1510ft 95kts
05-Mar-18 19:25 35.399399 -119.014987 319 1344ft 75kts
05-Mar-18 19:26 35.414956 -119.032752 311 1017ft 73kts
05-Mar-18 19:27 35.429333 -119.050647 315 639ft 72kts
05-Mar-18 19:28 35.438412 -119.061562 310 510ft 8kts
05-Mar-18 19:29 35.439435 -119.062693 14 510ft 0kts
05-Mar-18 19:30 35.440014 -119.063270 343 510ft 18kts
05-Mar-18 19:31 35.444999 -119.062956 351 512ft 5kts
05-Mar-18 19:32 35.445061 -119.062969 349 512ft 0kts
05-Mar-18 19:33 35.445061 -119.062969 349 512ft 0kts
05-Mar-18 19:34 35.445061 -119.062969 349 512ft 0kts
05-Mar-18 19:35 35.445061 -119.062969 349 512ft 0kts

Navigation Log

Ident Type
Flight plan parsing failed, navigation log unavailable